Time;durP1;ratioP1;P1;durP2;ratioP2;P2;SDS_P1;SDS_P2;PMS_P1;PMS_P2;Temp;Humidity;BMP_temperature;BMP_pressure;BME280_temperature;BME280_humidity;BME280_pressure;Samples;Min_cycle;Max_cycle;Signal;HPM_P1;HPM_P2
2022/04/19 00:01:18;;;;;;;11.15;5.63;;;21.20;50.90;;;;;;5034331;28;20057;-57
2022/04/19 00:03:43;;;;;;;9.73;6.55;;;21.10;50.80;;;;;;5033559;28;20164;-57
2022/04/19 00:06:09;;;;;;;10.38;5.85;;;21.10;50.90;;;;;;5033663;28;20482;-57
2022/04/19 00:08:37;;;;;;;7.88;5.60;;;21.10;50.90;;;;;;5034231;28;20037;-57
2022/04/19 00:11:04;;;;;;;8.68;5.68;;;21.10;50.90;;;;;;5033512;28;20037;-57
2022/04/19 00:13:29;;;;;;;9.38;5.90;;;21.10;50.90;;;;;;5033579;28;20128;-57
2022/04/19 00:15:56;;;;;;;10.73;6.10;;;21.10;50.90;;;;;;5033880;28;20077;-57
2022/04/19 00:18:21;;;;;;;10.65;5.95;;;21.10;50.90;;;;;;5034222;28;20041;-57
2022/04/19 00:20:47;;;;;;;8.98;5.80;;;21.10;50.80;;;;;;5032751;28;20382;-57
2022/04/19 00:23:13;;;;;;;8.63;5.80;;;21.10;50.90;;;;;;5033811;28;20047;-58
2022/04/19 00:25:40;;;;;;;8.40;5.47;;;21.10;50.90;;;;;;5033535;28;20048;-57
2022/04/19 00:28:06;;;;;;;8.88;5.88;;;21.00;50.80;;;;;;5033119;28;20047;-57
2022/04/19 00:30:32;;;;;;;8.55;5.85;;;21.00;50.80;;;;;;5033539;28;20050;-57
2022/04/19 00:32:57;;;;;;;8.90;5.07;;;21.00;50.80;;;;;;5033703;28;20046;-57
2022/04/19 00:35:24;;;;;;;8.13;5.25;;;21.00;50.80;;;;;;5032954;28;20042;-57
2022/04/19 00:37:49;;;;;;;10.25;6.13;;;21.00;50.80;;;;;;5033342;28;20121;-57
2022/04/19 00:40:15;;;;;;;8.60;4.97;;;21.00;50.80;;;;;;5033689;28;20449;-57
2022/04/19 00:42:41;;;;;;;8.90;5.28;;;21.00;50.80;;;;;;5032552;28;20433;-57
2022/04/19 00:45:07;;;;;;;8.25;5.25;;;21.00;50.80;;;;;;5033714;28;20500;-57
2022/04/19 00:47:32;;;;;;;6.78;4.95;;;21.00;50.80;;;;;;5032803;28;20049;-57
2022/04/19 00:50:01;;;;;;;8.20;5.32;;;21.00;50.80;;;;;;5033254;28;20476;-58
2022/04/19 00:52:28;;;;;;;7.32;4.80;;;21.00;50.80;;;;;;5033506;28;20045;-57
2022/04/19 00:54:53;;;;;;;7.38;5.10;;;20.90;50.80;;;;;;5032088;28;20409;-57
2022/04/19 00:57:19;;;;;;;7.65;4.85;;;20.90;50.70;;;;;;5033107;28;20049;-57
2022/04/19 00:59:44;;;;;;;7.68;4.60;;;20.90;50.80;;;;;;5031937;28;20033;-57
2022/04/19 01:02:10;;;;;;;8.55;5.57;;;20.90;50.80;;;;;;5032405;28;20049;-57
2022/04/19 01:04:35;;;;;;;7.57;4.63;;;20.90;50.80;;;;;;5033213;28;20492;-57
2022/04/19 01:07:01;;;;;;;9.50;5.25;;;20.90;50.70;;;;;;5032760;28;20080;-57
2022/04/19 01:09:27;;;;;;;6.80;4.20;;;20.90;50.70;;;;;;5031057;28;20041;-57
2022/04/19 01:14:36;;;;;;;7.22;4.78;;;20.90;50.70;;;;;;5033088;28;20049;-58
2022/04/19 01:17:03;;;;;;;5.43;3.97;;;20.90;50.70;;;;;;5032120;28;20053;-57
2022/04/19 01:19:28;;;;;;;8.05;4.75;;;20.90;50.80;;;;;;5032438;28;20473;-57
2022/04/19 01:21:54;;;;;;;6.43;4.15;;;20.90;50.80;;;;;;5031255;28;20578;-57
2022/04/19 01:24:20;;;;;;;6.70;4.30;;;20.90;50.80;;;;;;5031882;28;20132;-57
2022/04/19 01:26:46;;;;;;;6.65;4.88;;;20.80;50.70;;;;;;5032595;28;20046;-57
2022/04/19 01:29:12;;;;;;;6.03;3.83;;;20.80;50.70;;;;;;5032753;28;20064;-57
2022/04/19 01:31:38;;;;;;;7.53;4.20;;;20.80;50.70;;;;;;5031766;28;20103;-57
2022/04/19 01:34:04;;;;;;;5.88;4.10;;;20.80;50.70;;;;;;5032654;28;20045;-57
2022/04/19 01:36:29;;;;;;;7.45;4.65;;;20.80;50.70;;;;;;5032714;28;20033;-57
2022/04/19 01:38:55;;;;;;;7.60;4.45;;;20.80;50.70;;;;;;5031830;28;20047;-57
2022/04/19 01:41:21;;;;;;;8.00;4.35;;;20.80;50.70;;;;;;5032619;28;20041;-57
2022/04/19 01:43:46;;;;;;;7.15;4.50;;;20.80;50.70;;;;;;5031642;28;20096;-57
2022/04/19 01:46:12;;;;;;;6.13;3.70;;;20.80;50.70;;;;;;5032520;28;20041;-57
2022/04/19 01:48:37;;;;;;;5.63;3.88;;;20.80;50.70;;;;;;5032556;28;20060;-57
2022/04/19 01:51:03;;;;;;;7.05;4.13;;;20.80;50.70;;;;;;5031601;28;20037;-57
2022/04/19 01:53:29;;;;;;;5.60;3.90;;;20.80;50.70;;;;;;5032720;28;20084;-57
2022/04/19 01:55:55;;;;;;;5.70;3.80;;;20.80;50.80;;;;;;5032148;28;20037;-57
2022/04/19 01:58:20;;;;;;;5.30;3.63;;;20.80;50.80;;;;;;5031567;28;20076;-57
2022/04/19 02:00:46;;;;;;;6.43;4.05;;;20.70;50.70;;;;;;5031978;28;20528;-57
2022/04/19 02:03:11;;;;;;;6.70;3.70;;;20.70;50.70;;;;;;5032054;28;20046;-57
2022/04/19 02:05:37;;;;;;;5.20;3.25;;;20.70;51.40;;;;;;5030802;28;20120;-57
2022/04/19 02:08:03;;;;;;;5.43;4.00;;;20.70;50.60;;;;;;5032272;28;20059;-57
2022/04/19 02:10:28;;;;;;;7.07;3.60;;;20.70;50.60;;;;;;5032115;28;20045;-57
2022/04/19 02:12:54;;;;;;;5.57;3.60;;;20.70;50.60;;;;;;5031197;28;20056;-58
2022/04/19 02:15:19;;;;;;;6.10;3.88;;;20.70;50.60;;;;;;5035743;28;20047;-57
2022/04/19 02:17:45;;;;;;;5.20;3.53;;;20.70;50.60;;;;;;5036152;28;20045;-57
2022/04/19 02:20:13;;;;;;;6.35;3.80;;;20.70;50.60;;;;;;5035522;28;20128;-57
2022/04/19 02:22:39;;;;;;;6.43;4.00;;;20.70;50.60;;;;;;5036112;28;20052;-57
2022/04/19 02:25:05;;;;;;;5.43;3.42;;;20.60;50.60;;;;;;5035893;28;20049;-57
2022/04/19 02:27:31;;;;;;;6.03;3.70;;;20.70;50.60;;;;;;5035338;28;20111;-58
2022/04/19 02:29:57;;;;;;;5.40;3.15;;;20.60;50.60;;;;;;5035770;28;20049;-58
2022/04/19 02:32:23;;;;;;;5.25;3.40;;;20.60;50.50;;;;;;5035715;28;20057;-57
2022/04/19 02:34:52;;;;;;;7.30;3.78;;;20.60;50.50;;;;;;5034898;28;20544;-58
2022/04/19 02:37:18;;;;;;;6.60;3.78;;;20.60;50.50;;;;;;5035995;28;20046;-57
2022/04/19 02:39:46;;;;;;;6.00;3.80;;;20.60;50.60;;;;;;5035774;28;20053;-57
2022/04/19 02:42:12;;;;;;;6.95;3.75;;;20.60;50.50;;;;;;5034910;28;20045;-58
2022/04/19 02:44:38;;;;;;;5.70;3.75;;;20.60;50.50;;;;;;5035665;28;20472;-57
2022/04/19 02:47:04;;;;;;;5.93;3.50;;;20.60;50.50;;;;;;5034700;28;20128;-58
2022/04/19 02:49:30;;;;;;;5.63;3.50;;;20.60;50.50;;;;;;5035875;28;20041;-57
2022/04/19 02:51:55;;;;;;;6.43;3.30;;;20.60;50.60;;;;;;5035675;28;20033;-57
2022/04/19 02:54:21;;;;;;;6.03;3.72;;;20.60;50.50;;;;;;5034647;28;20037;-58
2022/04/19 02:56:47;;;;;;;5.43;3.63;;;20.60;50.50;;;;;;5035461;28;20068;-57
2022/04/19 02:59:13;;;;;;;5.97;3.60;;;20.60;50.60;;;;;;5035696;28;20088;-57
2022/04/19 03:01:39;;;;;;;5.00;3.50;;;20.50;50.60;;;;;;5034416;28;20438;-58
2022/04/19 03:04:04;;;;;;;5.50;3.65;;;20.50;50.60;;;;;;5035502;28;20532;-57
2022/04/19 03:06:30;;;;;;;4.90;3.40;;;20.50;50.60;;;;;;5035138;28;20033;-57
2022/04/19 03:08:55;;;;;;;6.35;3.75;;;20.50;50.60;;;;;;5034196;28;20053;-57
2022/04/19 03:11:21;;;;;;;6.65;3.85;;;20.50;50.60;;;;;;5035439;28;20045;-57
2022/04/19 03:13:47;;;;;;;5.53;3.92;;;20.50;50.60;;;;;;5035133;28;20053;-57
2022/04/19 03:16:14;;;;;;;6.97;3.63;;;20.50;50.60;;;;;;5034296;28;20053;-58
2022/04/19 03:18:43;;;;;;;5.70;3.83;;;20.50;50.70;;;;;;5034917;28;20095;-57
2022/04/19 03:21:12;;;;;;;5.40;3.40;;;20.50;50.70;;;;;;5035259;28;20041;-57
2022/04/19 03:29:06;;;;;;;4.95;3.10;;;20.50;50.70;;;;;;5034834;28;20405;-57
2022/04/19 03:31:32;;;;;;;5.55;3.80;;;20.40;50.70;;;;;;5034053;28;20497;-57
2022/04/19 03:33:58;;;;;;;5.00;3.30;;;20.40;50.70;;;;;;5034307;28;20057;-57
2022/04/19 03:36:24;;;;;;;6.28;3.85;;;20.40;50.60;;;;;;5034002;28;20051;-57
2022/04/19 03:38:49;;;;;;;5.70;3.33;;;20.40;50.70;;;;;;5034422;28;20041;-57
2022/04/19 03:41:15;;;;;;;4.43;3.03;;;20.40;50.70;;;;;;5034306;28;20075;-57
2022/04/19 03:43:41;;;;;;;6.47;3.28;;;20.40;51.40;;;;;;5033916;28;20053;-57
2022/04/19 03:46:08;;;;;;;5.47;3.30;;;20.40;50.70;;;;;;5034891;28;20095;-57
2022/04/19 03:48:34;;;;;;;6.18;3.63;;;20.40;50.70;;;;;;5034791;28;20048;-57
2022/04/19 03:50:59;;;;;;;5.72;3.50;;;20.40;50.80;;;;;;5033668;28;20053;-57
2022/04/19 03:53:25;;;;;;;5.65;3.70;;;20.40;50.80;;;;;;5034670;28;20047;-57
2022/04/19 03:55:50;;;;;;;5.43;3.38;;;20.40;50.70;;;;;;5034245;28;20042;-57
2022/04/19 03:58:16;;;;;;;5.22;3.20;;;20.40;50.80;;;;;;5033837;28;20477;-57
2022/04/19 04:00:41;;;;;;;5.38;3.22;;;20.40;50.80;;;;;;5031228;28;20045;-57
2022/04/19 04:03:08;;;;;;;5.30;3.20;;;20.40;50.80;;;;;;5029261;28;20049;-57
2022/04/19 04:05:33;;;;;;;5.35;3.10;;;20.40;50.80;;;;;;5033048;28;20042;-57
2022/04/19 04:07:59;;;;;;;5.22;3.67;;;20.40;50.80;;;;;;5033693;28;20053;-57
2022/04/19 04:10:25;;;;;;;5.97;3.38;;;20.40;50.70;;;;;;5034169;28;20485;-57
2022/04/19 04:12:50;;;;;;;5.82;3.58;;;20.40;50.70;;;;;;5033240;28;20041;-57
2022/04/19 04:15:16;;;;;;;5.93;3.40;;;20.30;50.70;;;;;;5034251;28;20081;-57
2022/04/19 04:17:42;;;;;;;5.38;3.60;;;20.40;50.70;;;;;;5034046;28;20115;-57
2022/04/19 04:20:08;;;;;;;6.97;3.40;;;20.40;50.60;;;;;;5033394;28;20499;-57
2022/04/19 04:22:33;;;;;;;4.53;2.80;;;20.40;50.60;;;;;;5033867;28;20054;-57
2022/04/19 04:24:59;;;;;;;5.90;3.45;;;20.40;50.60;;;;;;5033678;28;20048;-57
2022/04/19 04:27:24;;;;;;;4.88;3.10;;;20.40;50.60;;;;;;5033222;28;20393;-57
2022/04/19 04:29:50;;;;;;;6.45;3.58;;;20.40;50.60;;;;;;5033762;28;20504;-57
2022/04/19 04:32:16;;;;;;;5.30;2.90;;;20.40;50.60;;;;;;5033613;28;20053;-57
2022/04/19 04:34:42;;;;;;;5.30;3.50;;;20.40;50.60;;;;;;5032859;28;20044;-56
2022/04/19 04:37:07;;;;;;;5.13;3.10;;;20.40;50.60;;;;;;5033365;28;20124;-57
2022/04/19 04:39:33;;;;;;;5.47;3.30;;;20.40;50.50;;;;;;5032900;28;20064;-58
2022/04/19 04:41:58;;;;;;;6.18;3.20;;;20.40;50.50;;;;;;5033314;28;20049;-57
2022/04/19 04:44:24;;;;;;;4.82;3.03;;;20.40;50.60;;;;;;5033470;28;20044;-57
2022/04/19 04:49:36;;;;;;;4.13;2.95;;;20.40;51.40;;;;;;5033543;28;20049;-57
2022/04/19 04:52:03;;;;;;;5.95;3.00;;;20.40;50.70;;;;;;5032959;28;20398;-57
2022/04/19 04:54:29;;;;;;;5.88;3.28;;;20.40;50.70;;;;;;5032837;28;20056;-57
2022/04/19 04:56:54;;;;;;;5.68;3.53;;;20.40;50.70;;;;;;5033083;28;20493;-57
2022/04/19 04:59:20;;;;;;;5.97;2.92;;;20.50;50.80;;;;;;5033591;28;20050;-57
2022/04/19 05:01:46;;;;;;;5.60;3.35;;;20.50;50.70;;;;;;5032255;28;20045;-57
2022/04/19 05:04:12;;;;;;;4.57;3.05;;;20.50;50.80;;;;;;5033340;28;20041;-57
2022/04/19 05:06:38;;;;;;;4.38;2.92;;;20.50;50.70;;;;;;5033255;28;20095;-58
2022/04/19 05:09:03;;;;;;;4.88;3.17;;;20.50;50.60;;;;;;5032455;28;20045;-58
2022/04/19 05:11:29;;;;;;;5.90;3.03;;;20.60;50.60;;;;;;5033111;28;20094;-57
2022/04/19 05:13:55;;;;;;;4.93;2.72;;;20.60;50.50;;;;;;5033004;28;20048;-57
2022/04/19 05:16:21;;;;;;;4.13;2.80;;;20.60;50.50;;;;;;5032427;28;20052;-57
2022/04/19 05:18:46;;;;;;;5.05;2.97;;;20.60;50.60;;;;;;5032918;28;20049;-57
2022/04/19 05:21:12;;;;;;;5.70;3.10;;;20.60;50.60;;;;;;5032824;28;20049;-57
2022/04/19 05:23:37;;;;;;;4.57;2.53;;;20.70;50.60;;;;;;5032309;28;20045;-57
2022/04/19 05:26:03;;;;;;;4.38;2.72;;;20.70;50.60;;;;;;5032405;28;20405;-57
2022/04/19 05:28:28;;;;;;;5.07;2.80;;;20.70;50.60;;;;;;5033076;28;20041;-57
2022/04/19 05:30:54;;;;;;;4.47;3.00;;;20.70;50.60;;;;;;5031701;28;20187;-57
2022/04/19 05:33:19;;;;;;;4.47;2.80;;;20.70;50.60;;;;;;5032967;28;20044;-57
2022/04/19 05:35:45;;;;;;;4.63;2.53;;;20.60;50.60;;;;;;5032047;28;20374;-57
2022/04/19 05:38:11;;;;;;;4.63;2.70;;;20.70;50.70;;;;;;5032278;28;20049;-57
2022/04/19 05:40:39;;;;;;;5.40;3.00;;;20.70;50.70;;;;;;5032742;28;20049;-58
2022/04/19 05:43:05;;;;;;;3.88;2.55;;;20.70;50.80;;;;;;5031825;28;20401;-57
2022/04/19 05:45:30;;;;;;;3.80;2.45;;;20.70;50.80;;;;;;5032549;28;20049;-57
2022/04/19 05:47:56;;;;;;;4.75;3.05;;;20.70;50.90;;;;;;5031955;28;20045;-57
2022/04/19 05:50:21;;;;;;;5.00;2.97;;;20.70;50.90;;;;;;5031203;28;20042;-58
2022/04/19 05:52:47;;;;;;;5.55;2.70;;;20.70;51.00;;;;;;5031989;28;20405;-57
2022/04/19 05:55:12;;;;;;;4.22;2.40;;;20.70;51.00;;;;;;5032703;28;20048;-57
2022/04/19 05:57:38;;;;;;;3.53;2.38;;;20.70;51.00;;;;;;5031902;28;20073;-58
2022/04/19 06:00:04;;;;;;;7.18;2.65;;;20.80;51.10;;;;;;5032558;28;20077;-57
2022/04/19 06:05:13;;;;;;;4.10;2.70;;;20.80;51.10;;;;;;5031785;28;20049;-57
2022/04/19 06:07:46;;;;;;;5.55;2.50;;;20.80;51.10;;;;;;5032279;28;20049;-57
2022/04/19 06:10:12;;;;;;;4.82;2.72;;;20.90;51.20;;;;;;5032330;28;20042;-57
2022/04/19 06:12:38;;;;;;;5.97;2.60;;;20.80;51.10;;;;;;5031558;28;20048;-57
2022/04/19 06:15:04;;;;;;;6.10;3.17;;;20.90;51.20;;;;;;5032215;28;20488;-58
2022/04/19 06:17:32;;;;;;;5.35;2.72;;;20.90;51.30;;;;;;5032486;28;20034;-58
2022/04/19 06:19:58;;;;;;;7.53;2.50;;;20.90;51.40;;;;;;5025528;28;20076;-57
2022/04/19 06:22:24;;;;;;;3.88;2.30;;;20.90;51.60;;;;;;5030791;28;20128;-57
2022/04/19 06:24:49;;;;;;;5.85;2.50;;;21.00;51.90;;;;;;5032065;28;20183;-57
2022/04/19 06:27:15;;;;;;;5.32;2.42;;;21.00;51.90;;;;;;5024531;28;20041;-57
2022/04/19 06:29:40;;;;;;;9.70;2.63;;;21.00;52.10;;;;;;5021876;28;20381;-57
2022/04/19 06:32:06;;;;;;;4.82;2.30;;;21.00;52.20;;;;;;5031128;28;20140;-57
2022/04/19 06:34:32;;;;;;;3.58;2.10;;;21.00;52.30;;;;;;5031392;28;20397;-57
2022/04/19 06:36:57;;;;;;;4.15;2.42;;;21.10;52.50;;;;;;5014459;28;20046;-57
2022/04/19 06:39:23;;;;;;;5.43;2.60;;;21.10;53.30;;;;;;5018058;28;20658;-57
2022/04/19 06:41:50;;;;;;;4.25;2.33;;;21.10;52.70;;;;;;5017201;28;20038;-57
2022/04/19 06:44:16;;;;;;;5.78;2.13;;;21.10;52.60;;;;;;5012457;28;20121;-58
2022/04/19 06:46:47;;;;;;;6.63;2.25;;;21.10;52.60;;;;;;5011385;28;20117;-57
2022/04/19 06:49:13;;;;;;;4.35;2.08;;;21.20;52.80;;;;;;5012353;28;20057;-57
2022/04/19 06:51:38;;;;;;;3.33;2.22;;;21.20;52.80;;;;;;5011774;28;20038;-57
2022/04/19 06:54:04;;;;;;;3.95;2.47;;;21.20;52.80;;;;;;5016701;28;20029;-57
2022/04/19 06:56:31;;;;;;;10.55;2.30;;;21.20;52.70;;;;;;5024603;28;20551;-58
2022/04/19 06:58:56;;;;;;;4.00;2.10;;;21.20;52.80;;;;;;5016920;28;20495;-57
2022/04/19 07:01:23;;;;;;;4.32;2.35;;;21.20;52.70;;;;;;5012769;28;20042;-56
2022/04/19 07:03:49;;;;;;;4.38;2.03;;;21.20;52.70;;;;;;5015369;28;20045;-57
2022/04/19 07:06:15;;;;;;;4.07;2.13;;;21.30;52.70;;;;;;5015496;28;20041;-58
2022/04/19 07:08:40;;;;;;;6.82;2.50;;;21.30;52.80;;;;;;5014674;28;20141;-57
2022/04/19 07:11:06;;;;;;;7.47;2.70;;;21.30;53.00;;;;;;5015015;28;20030;-58
2022/04/19 07:13:31;;;;;;;5.22;2.63;;;21.30;53.00;;;;;;5015384;28;20468;-57
2022/04/19 07:15:57;;;;;;;6.03;3.30;;;21.30;53.10;;;;;;5014247;28;20116;-57
2022/04/19 07:18:23;;;;;;;5.28;2.85;;;21.30;53.10;;;;;;5015285;28;20041;-58
2022/04/19 07:29:02;;;;;;;8.52;3.65;;;21.40;53.10;;;;;;5014033;28;20405;-58
2022/04/19 07:31:28;;;;;;;6.47;3.28;;;21.40;53.10;;;;;;5014933;28;20153;-58
2022/04/19 07:33:54;;;;;;;8.50;3.67;;;21.40;53.20;;;;;;5015012;28;20134;-58
2022/04/19 07:36:20;;;;;;;7.85;3.50;;;21.50;53.20;;;;;;5014195;28;20140;-58
2022/04/19 07:38:45;;;;;;;9.70;3.00;;;21.40;53.10;;;;;;5014728;28;20049;-58
2022/04/19 07:41:12;;;;;;;9.23;2.88;;;21.50;53.20;;;;;;5014629;28;20049;-57
2022/04/19 07:43:37;;;;;;;7.45;3.03;;;21.50;53.20;;;;;;5014316;28;20052;-58
2022/04/19 07:46:04;;;;;;;8.98;4.40;;;21.50;53.30;;;;;;5014732;28;20045;-58
2022/04/19 07:48:30;;;;;;;8.88;3.08;;;21.50;53.90;;;;;;5015082;28;20046;-57
2022/04/19 07:50:56;;;;;;;7.80;3.33;;;21.50;53.20;;;;;;5013510;28;20037;-58
2022/04/19 07:53:22;;;;;;;8.38;2.97;;;21.50;53.20;;;;;;5014861;28;20045;-58
2022/04/19 07:55:48;;;;;;;6.60;3.30;;;21.50;53.30;;;;;;5014444;28;20068;-58
2022/04/19 07:58:14;;;;;;;7.47;3.35;;;21.60;53.30;;;;;;5014177;28;20381;-58
2022/04/19 08:00:39;;;;;;;6.22;3.20;;;21.60;53.40;;;;;;5022133;28;20038;-58
2022/04/19 08:03:05;;;;;;;6.15;2.85;;;21.60;53.40;;;;;;5028178;28;20086;-58
2022/04/19 08:05:30;;;;;;;6.53;2.58;;;21.60;53.40;;;;;;5033156;28;20045;-58
2022/04/19 08:07:57;;;;;;;5.18;2.65;;;21.60;53.40;;;;;;5017634;28;20046;-58
2022/04/19 08:10:22;;;;;;;5.55;2.47;;;21.70;53.40;;;;;;5014645;28;20051;-58
2022/04/19 08:12:48;;;;;;;6.00;2.53;;;21.70;53.50;;;;;;5012640;28;20046;-58
2022/04/19 08:15:13;;;;;;;7.88;2.97;;;21.70;53.60;;;;;;5014434;28;20064;-58
2022/04/19 08:17:39;;;;;;;5.50;2.88;;;21.70;53.50;;;;;;5013450;28;20049;-58
2022/04/19 08:20:06;;;;;;;10.32;2.60;;;21.70;53.40;;;;;;5014155;28;20045;-58
2022/04/19 08:22:31;;;;;;;5.30;2.83;;;21.70;53.40;;;;;;5014259;28;20046;-58
2022/04/19 08:24:57;;;;;;;5.88;2.53;;;21.70;53.40;;;;;;5012865;28;20100;-57
2022/04/19 08:27:23;;;;;;;5.65;2.45;;;21.70;53.40;;;;;;5014187;28;20371;-58
2022/04/19 08:29:48;;;;;;;5.30;2.50;;;21.80;53.40;;;;;;5013722;28;20048;-58
2022/04/19 08:32:14;;;;;;;6.15;2.42;;;21.80;53.40;;;;;;5013098;28;20054;-57
2022/04/19 08:34:39;;;;;;;4.38;2.10;;;21.80;53.40;;;;;;5013598;28;20430;-58
2022/04/19 08:37:05;;;;;;;6.57;2.50;;;21.80;53.50;;;;;;5013662;28;20045;-58
2022/04/19 08:39:31;;;;;;;4.20;2.58;;;21.80;53.50;;;;;;5026757;28;20049;-59
2022/04/19 08:41:57;;;;;;;8.55;2.05;;;21.80;53.50;;;;;;5033272;28;20050;-58
2022/04/19 08:44:22;;;;;;;5.32;2.30;;;21.80;53.50;;;;;;5033409;28;20033;-58
2022/04/19 08:46:48;;;;;;;4.70;2.20;;;21.90;53.50;;;;;;5032601;28;20057;-58
2022/04/19 08:49:13;;;;;;;7.10;2.33;;;21.80;53.40;;;;;;5033355;28;20069;-57
2022/04/19 08:51:39;;;;;;;4.80;1.90;;;21.90;53.50;;;;;;5031609;28;20124;-57
2022/04/19 08:59:34;;;;;;;4.45;2.28;;;21.90;53.50;;;;;;5032260;28;20414;-58
2022/04/19 09:01:59;;;;;;;4.30;1.85;;;21.90;53.50;;;;;;5032114;28;20484;-57
2022/04/19 09:04:25;;;;;;;4.43;1.98;;;21.90;53.50;;;;;;5033319;28;20128;-57
2022/04/19 09:06:58;;;;;;;4.03;1.75;;;21.90;53.50;;;;;;5031990;28;20435;-57
2022/04/19 09:09:25;;;;;;;4.53;1.85;;;21.90;53.50;;;;;;5033161;28;20095;-57
2022/04/19 09:11:51;;;;;;;7.30;2.55;;;22.00;53.50;;;;;;5033035;28;20102;-57
2022/04/19 09:14:17;;;;;;;3.58;1.95;;;22.00;53.40;;;;;;5032502;28;20525;-57
2022/04/19 09:16:43;;;;;;;5.15;2.00;;;22.00;53.40;;;;;;5032890;28;20060;-58
2022/04/19 09:19:08;;;;;;;4.78;1.80;;;22.00;53.40;;;;;;5031878;28;20159;-58
2022/04/19 09:21:38;;;;;;;3.92;1.60;;;22.00;53.40;;;;;;5026005;28;20128;-58
2022/04/19 09:24:18;;;;;;;4.30;1.80;;;22.00;53.30;;;;;;5013079;28;20136;-57
2022/04/19 09:26:44;;;;;;;3.78;1.70;;;22.00;53.20;;;;;;5013083;28;20055;-58
2022/04/19 09:29:23;;;;;;;5.47;1.77;;;22.00;53.10;;;;;;5012270;28;20061;-58
2022/04/19 09:32:01;;;;;;;3.08;1.33;;;22.00;52.90;;;;;;5012637;28;20157;-58
2022/04/19 09:34:30;;;;;;;;;;;22.00;52.90;;;;;;5027335;28;20079;-57
2022/04/19 09:37:11;;;;;;;3.42;1.42;;;22.00;52.60;;;;;;5012268;28;19964;-57
2022/04/19 09:39:40;;;;;;;5.90;1.55;;;21.90;52.60;;;;;;5013137;28;20081;-57
2022/04/19 09:42:08;;;;;;;4.15;1.60;;;22.00;52.60;;;;;;5012276;28;20057;-57
2022/04/19 09:44:40;;;;;;;6.72;2.00;;;22.00;52.50;;;;;;5013192;28;20042;-57
2022/04/19 09:47:07;;;;;;;6.00;1.75;;;22.00;52.50;;;;;;5013244;28;20124;-57
2022/04/19 09:49:52;;;;;;;4.80;1.93;;;22.00;52.60;;;;;;5011939;28;20517;-58
2022/04/19 09:52:21;;;;;;;5.35;1.60;;;22.00;52.60;;;;;;5012902;28;20061;-57
2022/04/19 09:55:08;;;;;;;5.47;2.03;;;22.00;52.70;;;;;;5012515;28;20470;-58
2022/04/19 09:57:36;;;;;;;6.37;1.50;;;22.00;52.60;;;;;;5012181;28;20382;-58
2022/04/19 10:00:03;;;;;;;7.73;2.20;;;22.00;52.60;;;;;;5012185;28;20478;-57
2022/04/19 10:10:42;;;;;;;5.85;1.83;;;22.00;52.80;;;;;;5025027;28;20045;-57
2022/04/19 10:13:07;;;;;;;4.25;1.60;;;22.00;52.80;;;;;;5032385;28;20045;-57
2022/04/19 10:15:34;;;;;;;4.40;1.35;;;22.00;52.90;;;;;;5032600;28;20060;-57
2022/04/19 10:18:00;;;;;;;5.38;1.50;;;22.00;53.00;;;;;;5031255;28;20397;-57
2022/04/19 10:20:32;;;;;;;6.63;1.60;;;22.00;53.00;;;;;;5032055;28;20482;-57
2022/04/19 10:23:05;;;;;;;4.90;1.45;;;22.10;53.10;;;;;;5032106;28;20044;-57
2022/04/19 10:25:40;;;;;;;3.15;1.40;;;22.10;53.10;;;;;;5031456;28;20053;-58
2022/04/19 10:28:07;;;;;;;4.15;1.30;;;22.10;53.80;;;;;;5021127;28;20392;-58
2022/04/19 10:30:37;;;;;;;5.15;1.05;;;22.10;53.10;;;;;;5031699;28;20089;-57
2022/04/19 10:33:41;;;;;;;2.70;1.38;;;22.10;53.00;;;;;;5029070;28;20042;-57
2022/04/19 10:36:29;;;;;;;4.50;1.38;;;22.10;53.10;;;;;;5034803;28;20048;-57
2022/04/19 10:39:16;;;;;;;5.45;1.20;;;22.10;53.00;;;;;;5034843;28;20520;-57
2022/04/19 10:41:57;;;;;;;4.10;1.25;;;22.10;53.10;;;;;;5035605;28;20041;-58
2022/04/19 10:44:43;;;;;;;3.30;1.30;;;22.10;53.20;;;;;;5035482;28;20052;-57
2022/04/19 10:47:13;;;;;;;6.53;1.35;;;22.10;53.20;;;;;;5031105;28;20061;-57
2022/04/19 10:50:06;;;;;;;6.43;1.40;;;22.10;53.20;;;;;;5035379;28;20163;-60
2022/04/19 10:52:40;;;;;;;5.88;1.33;;;22.10;53.30;;;;;;5033973;28;20041;-57
2022/04/19 10:55:24;;;;;;;6.03;1.40;;;22.10;53.20;;;;;;5035431;28;20056;-57
2022/04/19 10:58:17;;;;;;;5.47;1.45;;;22.10;52.90;;;;;;5035235;28;20044;-57
2022/04/19 11:00:45;;;;;;;6.47;1.33;;;22.10;52.50;;;;;;5034432;28;20123;-57
2022/04/19 11:03:38;;;;;;;4.10;1.30;;;22.10;52.60;;;;;;5035261;28;20432;-57
2022/04/19 11:06:04;;;;;;;5.53;1.35;;;22.10;52.60;;;;;;5035422;28;20045;-57
2022/04/19 11:08:37;;;;;;;5.65;1.17;;;22.00;52.60;;;;;;5034666;28;20060;-57
2022/04/19 11:11:02;;;;;;;6.90;1.35;;;22.00;52.50;;;;;;5035287;28;20041;-57
2022/04/19 11:13:33;;;;;;;3.40;0.77;;;22.00;52.40;;;;;;5034353;28;20496;-57
2022/04/19 11:15:59;;;;;;;4.65;1.30;;;22.00;52.30;;;;;;5033557;28;20065;-57
2022/04/19 11:18:25;;;;;;;3.03;1.10;;;22.00;52.30;;;;;;5034468;28;20049;-58
2022/04/19 11:20:53;;;;;;;1.90;0.82;;;22.00;52.10;;;;;;5033993;28;20037;-57
2022/04/19 11:23:20;;;;;;;4.28;1.50;;;22.00;52.10;;;;;;5035060;28;20046;-57
2022/04/19 11:25:46;;;;;;;3.95;1.20;;;22.00;52.20;;;;;;5034403;28;20046;-57
2022/04/19 11:28:11;;;;;;;2.60;1.20;;;22.00;52.20;;;;;;5033997;28;20397;-58
2022/04/19 11:30:57;;;;;;;3.17;0.93;;;22.00;52.20;;;;;;5034270;28;20061;-57
2022/04/19 11:33:31;;;;;;;4.65;1.00;;;22.00;52.10;;;;;;5030788;28;20053;-57
2022/04/19 11:35:58;;;;;;;4.13;1.10;;;22.00;52.10;;;;;;5033799;28;20040;-57
2022/04/19 11:38:24;;;;;;;5.13;1.25;;;22.00;52.10;;;;;;5034887;28;20045;-57
2022/04/19 11:49:03;;;;;;;4.95;0.90;;;22.00;52.00;;;;;;5034095;28;20488;-57
2022/04/19 11:51:30;;;;;;;2.55;0.70;;;22.00;52.00;;;;;;5034487;28;20045;-57
2022/04/19 11:53:55;;;;;;;3.03;0.88;;;22.00;51.90;;;;;;5034500;28;20076;-57
2022/04/19 11:56:21;;;;;;;2.25;0.68;;;22.00;51.70;;;;;;5033820;28;20073;-57
2022/04/19 11:58:52;;;;;;;2.40;0.80;;;22.00;51.60;;;;;;5034276;28;20045;-57
2022/04/19 12:01:17;;;;;;;3.63;0.90;;;22.00;51.60;;;;;;5034207;28;20477;-57
2022/04/19 12:03:43;;;;;;;3.05;1.13;;;22.00;51.50;;;;;;5033556;28;20497;-58
2022/04/19 12:06:16;;;;;;;2.63;0.80;;;22.00;51.40;;;;;;5028222;28;20047;-58
2022/04/19 12:08:46;;;;;;;3.63;0.80;;;22.00;51.30;;;;;;5034127;28;20037;-57
2022/04/19 12:11:14;;;;;;;3.10;0.73;;;22.00;51.20;;;;;;5032887;28;20037;-57
2022/04/19 12:13:42;;;;;;;4.10;0.90;;;22.00;51.20;;;;;;5016589;28;20042;-57
2022/04/19 12:16:31;;;;;;;2.40;0.70;;;22.00;51.50;;;;;;5014590;28;20128;-57
2022/04/19 12:19:07;;;;;;;1.70;0.70;;;22.00;51.70;;;;;;5012470;28;20100;-57
2022/04/19 12:21:40;;;;;;;2.88;0.68;;;22.00;52.10;;;;;;5014044;28;20486;-58
2022/04/19 12:24:22;;;;;;;3.72;0.75;;;22.00;52.20;;;;;;5013209;28;20444;-57
2022/04/19 12:27:08;;;;;;;2.17;0.93;;;22.00;52.20;;;;;;5013999;28;20140;-57
2022/04/19 12:29:34;;;;;;;2.53;0.75;;;22.10;52.10;;;;;;5014223;28;20046;-57
2022/04/19 12:32:00;;;;;;;2.10;0.60;;;22.00;51.80;;;;;;5012840;28;20180;-57
2022/04/19 12:34:38;;;;;;;1.40;0.80;;;22.00;51.60;;;;;;5014132;28;20058;-57
2022/04/19 12:37:08;;;;;;;1.45;0.60;;;22.10;51.60;;;;;;5014157;28;20129;-57
2022/04/19 12:39:33;;;;;;;2.65;0.60;;;22.10;51.60;;;;;;5022037;28;20477;-56
2022/04/19 12:42:09;;;;;;;3.47;0.80;;;22.00;51.40;;;;;;5023124;28;20091;-57
2022/04/19 12:44:36;;;;;;;1.63;0.55;;;22.10;51.20;;;;;;5020504;28;20046;-56
2022/04/19 12:47:08;;;;;;;1.98;0.77;;;22.10;51.20;;;;;;5021846;28;20397;-57
2022/04/19 12:49:42;;;;;;;2.72;0.50;;;22.10;51.20;;;;;;5024228;28;20072;-57
2022/04/19 12:52:07;;;;;;;3.75;0.57;;;22.10;51.20;;;;;;5005571;28;20065;-57
2022/04/19 12:54:50;;;;;;;1.95;0.60;;;22.10;51.20;;;;;;5021947;28;20073;-56
2022/04/19 12:57:23;;;;;;;1.02;0.60;;;22.10;51.20;;;;;;5020324;28;20195;-56
2022/04/19 12:59:49;;;;;;;0.77;0.40;;;22.10;51.10;;;;;;5029289;28;20053;-58
2022/04/19 13:02:17;;;;;;;1.77;0.60;;;22.20;51.20;;;;;;5021991;28;20050;-58
2022/04/19 13:04:42;;;;;;;3.90;0.80;;;22.20;51.00;;;;;;5022885;28;20064;-58
2022/04/19 13:12:37;;;;;;;1.77;0.60;;;22.20;50.00;;;;;;5022157;28;20045;-58
2022/04/19 13:15:06;;;;;;;1.50;0.50;;;22.20;49.80;;;;;;5022134;28;20034;-58
2022/04/19 13:17:34;;;;;;;1.80;0.70;;;22.20;49.60;;;;;;5023974;28;20049;-58
2022/04/19 13:20:00;;;;;;;3.45;0.82;;;22.20;49.30;;;;;;5021095;28;20124;-58
2022/04/19 13:22:25;;;;;;;1.52;0.63;;;22.20;49.10;;;;;;5022684;28;20128;-58
2022/04/19 13:24:51;;;;;;;3.78;0.80;;;22.20;49.60;;;;;;5023571;28;20053;-58
2022/04/19 13:27:17;;;;;;;1.08;0.60;;;22.30;48.70;;;;;;5020680;28;20038;-58
2022/04/19 13:29:42;;;;;;;2.17;0.57;;;22.30;48.50;;;;;;5022695;28;20041;-58
2022/04/19 13:32:08;;;;;;;1.42;0.60;;;22.30;48.30;;;;;;5022897;28;20062;-60
2022/04/19 13:34:34;;;;;;;1.30;0.70;;;22.40;48.10;;;;;;5020780;28;20069;-58
2022/04/19 13:37:00;;;;;;;2.28;0.60;;;22.40;47.90;;;;;;5019825;28;20127;-58
2022/04/19 13:39:26;;;;;;;2.05;0.60;;;22.40;47.90;;;;;;5019670;28;20045;-58